createdAt,value
2022-07-28T00:01:00.178Z,18.90
2022-07-28T00:03:28.438Z,18.90
2022-07-28T00:05:56.716Z,18.90
2022-07-28T00:08:25.116Z,18.90
2022-07-28T00:10:54.733Z,18.90
2022-07-28T00:13:23.058Z,18.90
2022-07-28T00:15:51.541Z,18.90
2022-07-28T00:18:20.013Z,18.90
2022-07-28T00:20:48.420Z,18.90
2022-07-28T00:23:16.660Z,18.90
2022-07-28T00:25:48.652Z,18.90
2022-07-28T00:28:18.421Z,18.80
2022-07-28T00:30:46.642Z,18.70
2022-07-28T00:33:14.861Z,18.70
2022-07-28T00:35:43.164Z,18.60
2022-07-28T00:38:16.771Z,18.60
2022-07-28T00:41:14.198Z,18.50
2022-07-28T00:43:46.129Z,18.50
2022-07-28T00:46:17.786Z,18.40
2022-07-28T00:48:50.758Z,18.40
2022-07-28T00:51:21.804Z,18.30
2022-07-28T00:53:50.665Z,18.30
2022-07-28T00:56:20.072Z,18.30
2022-07-28T00:58:50.474Z,18.20
2022-07-28T01:01:21.159Z,18.20
2022-07-28T01:03:53.231Z,18.20
2022-07-28T01:06:47.859Z,18.10
2022-07-28T01:09:38.532Z,18.10
2022-07-28T01:12:17.497Z,18.00
2022-07-28T01:14:52.322Z,18.00
2022-07-28T01:17:28.849Z,18.00
2022-07-28T01:20:08.342Z,17.90
2022-07-28T01:22:42.157Z,17.90
2022-07-28T01:25:22.682Z,17.90
2022-07-28T01:28:08.324Z,17.90
2022-07-28T01:30:42.838Z,17.80
2022-07-28T01:33:17.656Z,17.80
2022-07-28T01:35:53.162Z,17.80
2022-07-28T01:38:24.437Z,17.70
2022-07-28T01:40:55.827Z,17.70
2022-07-28T01:43:27.569Z,17.70
2022-07-28T01:45:58.572Z,17.70
2022-07-28T01:48:29.216Z,17.60
2022-07-28T01:50:58.537Z,17.70
2022-07-28T01:53:27.811Z,17.60
2022-07-28T01:55:57.101Z,17.60
2022-07-28T01:58:29.007Z,17.50
2022-07-28T02:01:00.442Z,17.50
2022-07-28T02:03:31.984Z,17.60
2022-07-28T02:06:03.627Z,17.50
2022-07-28T02:08:33.226Z,17.50
2022-07-28T02:11:16.059Z,17.50
2022-07-28T02:13:45.453Z,17.50
2022-07-28T02:16:16.966Z,17.50
2022-07-28T02:18:46.462Z,17.50
2022-07-28T02:21:16.163Z,17.50
2022-07-28T02:23:47.008Z,17.50
2022-07-28T02:26:18.003Z,17.50
2022-07-28T02:28:52.670Z,17.40
2022-07-28T02:31:27.898Z,17.40
2022-07-28T02:34:11.891Z,17.40
2022-07-28T02:36:48.406Z,17.40
2022-07-28T02:39:24.094Z,17.40
2022-07-28T02:42:00.039Z,17.40
2022-07-28T02:44:32.883Z,17.40
2022-07-28T02:47:06.417Z,17.30
2022-07-28T02:49:37.427Z,17.30
2022-07-28T02:52:08.827Z,17.30
2022-07-28T02:54:38.544Z,17.30
2022-07-28T02:57:07.881Z,17.30
2022-07-28T02:59:37.661Z,17.30
2022-07-28T03:02:09.354Z,17.20
2022-07-28T03:04:55.822Z,17.20
2022-07-28T03:07:24.267Z,17.20
2022-07-28T03:09:53.399Z,17.10
2022-07-28T03:12:21.779Z,17.10
2022-07-28T03:14:50.044Z,17.10
2022-07-28T03:17:20.289Z,17.10
2022-07-28T03:19:48.554Z,17.10
2022-07-28T03:22:17.070Z,17.10
2022-07-28T03:24:50.840Z,17.00
2022-07-28T03:27:25.488Z,17.00
2022-07-28T03:30:03.585Z,17.00
2022-07-28T03:32:36.755Z,17.00
2022-07-28T03:35:05.575Z,16.90
2022-07-28T03:37:39.054Z,16.90
2022-07-28T03:40:13.429Z,16.90
2022-07-28T03:42:45.004Z,16.80
2022-07-28T03:45:13.577Z,16.80
2022-07-28T03:47:51.946Z,16.80
2022-07-28T03:50:23.397Z,16.70
2022-07-28T03:52:51.981Z,16.70
2022-07-28T03:55:20.928Z,16.70
2022-07-28T03:57:49.246Z,16.60
2022-07-28T04:00:19.194Z,16.70
2022-07-28T04:02:49.524Z,16.80
2022-07-28T04:05:19.421Z,16.90
2022-07-28T04:07:47.677Z,17.00
2022-07-28T04:10:19.098Z,17.00
2022-07-28T04:12:49.647Z,17.10
2022-07-28T04:15:19.579Z,17.00
2022-07-28T04:17:49.709Z,17.00
2022-07-28T04:20:19.109Z,17.00
2022-07-28T04:22:48.260Z,17.00
2022-07-28T04:25:18.840Z,16.90
2022-07-28T04:27:47.470Z,16.90
2022-07-28T04:30:18.068Z,16.90
2022-07-28T04:32:49.613Z,17.00
2022-07-28T04:35:19.357Z,17.00
2022-07-28T04:37:49.550Z,17.10
2022-07-28T04:40:18.431Z,17.20
2022-07-28T04:42:46.888Z,17.30
2022-07-28T04:45:15.164Z,17.40
2022-07-28T04:47:43.410Z,17.60
2022-07-28T04:50:15.900Z,17.70
2022-07-28T04:52:49.179Z,17.80
2022-07-28T04:55:18.733Z,17.90
2022-07-28T04:57:48.593Z,17.90
2022-07-28T05:00:17.672Z,18.00
2022-07-28T05:02:47.927Z,18.10
2022-07-28T05:05:18.135Z,18.20
2022-07-28T05:07:46.469Z,18.30
2022-07-28T05:10:15.264Z,18.40
2022-07-28T05:12:45.271Z,18.50
2022-07-28T05:15:13.469Z,18.60
2022-07-28T05:17:41.946Z,18.70
2022-07-28T05:20:14.064Z,18.80
2022-07-28T05:22:45.641Z,18.80
2022-07-28T05:25:19.515Z,18.90
2022-07-28T05:27:48.778Z,19.00
2022-07-28T05:30:18.347Z,19.00
2022-07-28T05:32:47.809Z,19.10
2022-07-28T05:35:16.233Z,19.00
2022-07-28T05:37:45.887Z,19.00
2022-07-28T05:40:16.295Z,19.00
2022-07-28T05:42:47.655Z,19.10
2022-07-28T05:45:17.749Z,19.20
2022-07-28T05:47:48.560Z,19.30
2022-07-28T05:50:18.156Z,19.40
2022-07-28T05:52:49.138Z,19.40
2022-07-28T05:55:17.640Z,19.40
2022-07-28T05:57:46.293Z,19.60
2022-07-28T06:00:18.021Z,19.70
2022-07-28T06:02:49.108Z,19.80
2022-07-28T06:05:19.498Z,20.00
2022-07-28T06:07:51.656Z,20.10
2022-07-28T06:10:22.158Z,20.30
2022-07-28T06:12:53.359Z,20.30
2022-07-28T06:15:23.616Z,20.40
2022-07-28T06:17:53.274Z,20.60
2022-07-28T06:20:23.643Z,20.70
2022-07-28T06:22:55.829Z,20.80
2022-07-28T06:25:27.036Z,20.90
2022-07-28T06:28:01.105Z,21.00
2022-07-28T06:30:30.008Z,21.10
2022-07-28T06:32:59.403Z,21.30
2022-07-28T06:35:27.811Z,21.40
2022-07-28T06:37:57.413Z,21.50
2022-07-28T06:40:25.869Z,21.60
2022-07-28T06:42:54.240Z,21.70
2022-07-28T06:45:22.837Z,21.90
2022-07-28T06:47:51.417Z,22.00
2022-07-28T06:50:25.055Z,22.10
2022-07-28T06:52:56.681Z,22.20
2022-07-28T06:55:25.125Z,22.30
2022-07-28T06:57:54.275Z,22.40
2022-07-28T07:00:22.790Z,22.60
2022-07-28T07:02:50.998Z,22.70
2022-07-28T07:05:19.524Z,22.80
2022-07-28T07:07:47.764Z,22.90
2022-07-28T07:10:17.567Z,23.10
2022-07-28T07:12:45.819Z,23.10
2022-07-28T07:15:14.163Z,23.20
2022-07-28T07:17:42.450Z,23.30
2022-07-28T07:20:13.389Z,23.40
2022-07-28T07:22:45.595Z,23.50
2022-07-28T07:25:17.826Z,23.70
2022-07-28T07:27:47.084Z,23.70
2022-07-28T07:30:17.044Z,23.80
2022-07-28T07:32:45.668Z,23.90
2022-07-28T07:35:14.141Z,24.00
2022-07-28T07:37:42.502Z,24.10
2022-07-28T07:40:11.237Z,24.20
2022-07-28T07:42:40.855Z,24.30
2022-07-28T07:45:10.429Z,24.40
2022-07-28T07:47:38.709Z,24.30
2022-07-28T07:50:08.229Z,24.50
2022-07-28T07:52:36.421Z,24.70
2022-07-28T07:55:05.673Z,24.70
2022-07-28T07:57:33.913Z,24.90
2022-07-28T08:00:03.759Z,25.00
2022-07-28T08:02:32.493Z,25.10
2022-07-28T08:05:01.798Z,25.20
2022-07-28T08:07:30.057Z,25.20
2022-07-28T08:09:58.378Z,25.40
2022-07-28T08:12:26.644Z,25.50
2022-07-28T08:14:55.184Z,25.70
2022-07-28T08:17:26.178Z,25.80
2022-07-28T08:19:54.781Z,25.90
2022-07-28T08:22:23.290Z,26.00
2022-07-28T08:24:51.760Z,26.20
2022-07-28T08:27:20.167Z,26.30
2022-07-28T08:29:48.558Z,26.50
2022-07-28T08:32:16.856Z,26.60
2022-07-28T08:34:46.449Z,26.80
2022-07-28T08:37:14.690Z,26.80
2022-07-28T08:39:42.875Z,26.90
2022-07-28T08:42:16.867Z,27.10
2022-07-28T08:44:53.650Z,27.20
2022-07-28T08:47:22.712Z,27.30
2022-07-28T08:49:55.390Z,27.30
2022-07-28T08:52:26.307Z,27.40
2022-07-28T08:54:57.190Z,27.60
2022-07-28T08:57:29.942Z,27.60
2022-07-28T08:59:58.586Z,27.60
2022-07-28T09:02:28.961Z,27.70
2022-07-28T09:05:00.570Z,27.90
2022-07-28T09:07:29.364Z,28.20
2022-07-28T09:10:02.858Z,28.40
2022-07-28T09:12:31.362Z,28.60
2022-07-28T09:14:59.565Z,28.80
2022-07-28T09:17:28.315Z,29.00
2022-07-28T09:19:58.002Z,29.20
2022-07-28T09:22:26.794Z,29.30
2022-07-28T09:24:55.440Z,29.30
2022-07-28T09:27:23.719Z,29.40
2022-07-28T09:30:01.377Z,29.70
2022-07-28T09:32:31.320Z,30.00
2022-07-28T09:35:01.116Z,30.10
2022-07-28T09:37:29.761Z,29.90
2022-07-28T09:39:59.299Z,30.00
2022-07-28T09:42:29.744Z,30.30
2022-07-28T09:45:24.510Z,30.60
2022-07-28T09:48:13.707Z,30.40
2022-07-28T09:50:44.535Z,30.20
2022-07-28T09:53:28.231Z,30.60
2022-07-28T09:55:59.700Z,31.10
2022-07-28T09:58:29.572Z,31.60
2022-07-28T10:01:07.711Z,31.30
2022-07-28T10:03:38.488Z,30.80
2022-07-28T10:06:09.390Z,30.60
2022-07-28T10:08:43.556Z,31.30
2022-07-28T10:11:13.774Z,31.90
2022-07-28T10:14:00.445Z,32.70
2022-07-28T10:16:30.910Z,33.40
2022-07-28T10:19:01.838Z,34.00
2022-07-28T10:21:35.900Z,34.30
2022-07-28T10:24:08.232Z,34.30
2022-07-28T10:26:44.168Z,34.10
2022-07-28T10:29:16.637Z,34.30
2022-07-28T10:31:50.657Z,33.90
2022-07-28T10:34:24.585Z,33.80
2022-07-28T10:36:56.758Z,34.00
2022-07-28T10:39:31.959Z,33.70
2022-07-28T10:42:00.692Z,33.50
2022-07-28T10:44:29.528Z,33.20
2022-07-28T10:46:58.971Z,33.70
2022-07-28T10:49:32.696Z,34.30
2022-07-28T10:52:06.703Z,34.60
2022-07-28T10:54:55.775Z,34.80
2022-07-28T10:57:25.731Z,35.50
2022-07-28T11:00:13.301Z,36.00
2022-07-28T11:02:55.343Z,36.10
2022-07-28T11:05:37.581Z,35.50
2022-07-28T11:08:09.910Z,35.10
2022-07-28T11:10:49.954Z,35.30
2022-07-28T11:13:30.400Z,35.50
2022-07-28T11:16:22.009Z,35.10
2022-07-28T11:19:08.070Z,35.20
2022-07-28T11:22:28.169Z,34.90
2022-07-28T11:25:18.732Z,35.90
2022-07-28T11:28:07.474Z,36.50
2022-07-28T11:30:54.536Z,37.00
2022-07-28T11:33:24.732Z,37.20
2022-07-28T11:35:58.521Z,36.20
2022-07-28T11:38:28.295Z,35.90
2022-07-28T11:40:58.494Z,35.80
2022-07-28T11:43:37.796Z,35.70
2022-07-28T11:46:38.455Z,35.60
2022-07-28T11:49:27.715Z,35.00
2022-07-28T11:52:16.709Z,34.90
2022-07-28T11:54:57.294Z,34.20
2022-07-28T11:57:28.525Z,33.60
2022-07-28T12:00:00.302Z,33.20
2022-07-28T12:02:32.082Z,32.90
2022-07-28T12:05:09.309Z,32.80
2022-07-28T12:07:45.039Z,32.70
2022-07-28T12:13:29.138Z,32.40
2022-07-28T12:15:57.893Z,32.40
2022-07-28T12:18:26.308Z,32.30
2022-07-28T12:20:55.733Z,33.00
2022-07-28T12:23:34.990Z,33.50
2022-07-28T12:26:32.500Z,33.40
2022-07-28T12:29:13.615Z,33.10
2022-07-28T12:31:55.619Z,33.10
2022-07-28T12:34:28.874Z,33.30
2022-07-28T12:36:59.799Z,33.20
2022-07-28T12:39:29.294Z,33.00
2022-07-28T12:42:05.734Z,32.30
2022-07-28T12:44:37.570Z,32.10
2022-07-28T12:47:09.099Z,32.00
2022-07-28T12:49:39.032Z,31.70
2022-07-28T12:52:18.084Z,31.70
2022-07-28T12:54:54.717Z,32.30
2022-07-28T12:57:48.835Z,32.30
2022-07-28T13:00:23.623Z,31.90
2022-07-28T13:02:59.013Z,31.60
2022-07-28T13:05:50.191Z,31.40
2022-07-28T13:08:18.994Z,31.20
2022-07-28T13:10:51.693Z,31.30
2022-07-28T13:13:24.004Z,31.30
2022-07-28T13:16:17.023Z,31.30
2022-07-28T13:18:47.739Z,31.30
2022-07-28T13:21:16.665Z,31.90
2022-07-28T13:23:45.550Z,32.20
2022-07-28T13:26:13.736Z,32.50
2022-07-28T13:28:44.267Z,32.90
2022-07-28T13:31:12.598Z,32.90
2022-07-28T13:33:42.167Z,33.20
2022-07-28T13:36:10.671Z,33.30
2022-07-28T13:38:39.062Z,33.40
2022-07-28T13:41:07.375Z,33.30
2022-07-28T13:43:36.011Z,33.50
2022-07-28T13:46:05.396Z,33.20
2022-07-28T13:48:35.805Z,33.00
2022-07-28T13:51:05.641Z,33.00
2022-07-28T13:53:35.921Z,33.00
2022-07-28T13:56:08.989Z,33.00
2022-07-28T13:58:38.464Z,33.10
2022-07-28T14:01:07.694Z,32.90
2022-07-28T14:03:50.713Z,32.80
2022-07-28T14:06:25.900Z,32.60
2022-07-28T14:08:54.186Z,32.60
2022-07-28T14:11:23.961Z,32.50
2022-07-28T14:13:52.980Z,32.40
2022-07-28T14:16:21.748Z,32.40
2022-07-28T14:18:50.356Z,32.40
2022-07-28T14:21:19.150Z,32.30
2022-07-28T14:23:49.057Z,32.20
2022-07-28T14:26:34.971Z,31.90
2022-07-28T14:29:04.814Z,31.60
2022-07-28T14:31:40.189Z,31.50
2022-07-28T14:34:08.506Z,31.80
2022-07-28T14:36:36.891Z,32.00
2022-07-28T14:39:12.308Z,32.30
2022-07-28T14:41:42.569Z,32.40
2022-07-28T14:44:15.587Z,32.50
2022-07-28T14:46:52.861Z,32.60
2022-07-28T14:49:21.237Z,32.40
2022-07-28T14:51:50.384Z,32.00
2022-07-28T14:54:19.974Z,32.00
2022-07-28T14:56:48.186Z,31.80
2022-07-28T14:59:16.428Z,31.70
2022-07-28T15:01:44.803Z,31.80
2022-07-28T15:04:14.570Z,31.90
2022-07-28T15:06:43.239Z,32.00
2022-07-28T15:09:11.547Z,31.90
2022-07-28T15:11:41.964Z,32.00
2022-07-28T15:14:10.260Z,31.90
2022-07-28T15:16:40.058Z,31.90
2022-07-28T15:19:09.330Z,32.00
2022-07-28T15:21:39.788Z,31.90
2022-07-28T15:24:10.186Z,31.90
2022-07-28T15:26:40.277Z,31.90
2022-07-28T15:29:08.966Z,31.90
2022-07-28T15:31:37.693Z,31.90
2022-07-28T15:34:08.291Z,31.80
2022-07-28T15:36:38.734Z,31.80
2022-07-28T15:39:09.220Z,31.50
2022-07-28T15:41:37.538Z,31.60
2022-07-28T15:44:07.393Z,31.50
2022-07-28T15:46:35.797Z,31.50
2022-07-28T15:49:07.429Z,31.60
2022-07-28T15:51:36.952Z,31.60
2022-07-28T15:54:06.937Z,31.70
2022-07-28T15:56:37.274Z,31.70
2022-07-28T15:59:08.019Z,31.70
2022-07-28T16:01:36.349Z,31.70
2022-07-28T16:04:04.800Z,31.80
2022-07-28T16:06:46.996Z,31.70
2022-07-28T16:09:15.444Z,31.70
2022-07-28T16:11:43.950Z,31.50
2022-07-28T16:14:13.784Z,31.40
2022-07-28T16:16:42.420Z,31.20
2022-07-28T16:19:31.551Z,31.10
2022-07-28T16:21:59.397Z,31.10
2022-07-28T16:24:27.584Z,30.90
2022-07-28T16:26:55.877Z,30.70
2022-07-28T16:29:25.521Z,30.50
2022-07-28T16:31:53.969Z,30.50
2022-07-28T16:34:22.694Z,30.40
2022-07-28T16:36:50.908Z,30.30
2022-07-28T16:39:19.163Z,30.20
2022-07-28T16:41:48.518Z,30.10
2022-07-28T16:44:17.329Z,30.00
2022-07-28T16:46:47.294Z,29.90
2022-07-28T16:49:16.774Z,29.80
2022-07-28T16:51:45.045Z,29.60
2022-07-28T16:54:14.332Z,29.50
2022-07-28T16:56:43.012Z,29.40
2022-07-28T16:59:11.261Z,29.40
2022-07-28T17:01:45.150Z,29.40
2022-07-28T17:04:16.576Z,29.40
2022-07-28T17:06:45.363Z,29.40
2022-07-28T17:09:16.687Z,29.40
2022-07-28T17:11:45.140Z,29.30
2022-07-28T17:14:13.662Z,29.30
2022-07-28T17:16:42.228Z,29.20
2022-07-28T17:19:10.725Z,29.10
2022-07-28T17:21:40.899Z,29.10
2022-07-28T17:24:12.300Z,29.10
2022-07-28T17:29:32.200Z,28.90
2022-07-28T17:32:00.484Z,28.90
2022-07-28T17:34:32.026Z,28.80
2022-07-28T17:37:01.688Z,28.80
2022-07-28T17:39:29.989Z,28.70
2022-07-28T17:41:58.373Z,28.70
2022-07-28T17:44:26.939Z,28.60
2022-07-28T17:46:55.752Z,28.50
2022-07-28T17:49:24.188Z,28.50
2022-07-28T17:51:52.951Z,28.40
2022-07-28T17:54:24.973Z,28.30
2022-07-28T17:56:53.967Z,28.20
2022-07-28T17:59:22.242Z,28.00
2022-07-28T18:01:50.579Z,27.90
2022-07-28T18:04:19.684Z,27.80
2022-07-28T18:06:48.417Z,27.70
2022-07-28T18:09:16.902Z,27.60
2022-07-28T18:11:58.016Z,27.50
2022-07-28T18:14:28.011Z,27.30
2022-07-28T18:16:57.311Z,27.20
2022-07-28T18:19:26.022Z,27.10
2022-07-28T18:21:54.544Z,27.00
2022-07-28T18:24:23.192Z,27.00
2022-07-28T18:26:53.605Z,26.90
2022-07-28T18:29:22.831Z,26.80
2022-07-28T18:31:54.390Z,26.70
2022-07-28T18:34:23.764Z,26.70
2022-07-28T18:36:54.014Z,26.60
2022-07-28T18:39:22.475Z,26.50
2022-07-28T18:41:55.638Z,26.50
2022-07-28T18:44:24.267Z,26.40
2022-07-28T18:46:52.643Z,26.40
2022-07-28T18:49:21.609Z,26.30
2022-07-28T18:51:50.307Z,26.30
2022-07-28T18:54:27.398Z,26.20
2022-07-28T18:56:57.687Z,26.20
2022-07-28T18:59:26.193Z,26.10
2022-07-28T19:01:54.476Z,26.10
2022-07-28T19:04:22.796Z,26.00
2022-07-28T19:06:51.184Z,26.00
2022-07-28T19:09:19.510Z,25.90
2022-07-28T19:11:48.132Z,25.80
2022-07-28T19:14:18.863Z,25.80
2022-07-28T19:16:47.626Z,25.70
2022-07-28T19:19:16.403Z,25.70
2022-07-28T19:21:44.627Z,25.60
2022-07-28T19:24:14.065Z,25.50
2022-07-28T19:26:45.090Z,25.50
2022-07-28T19:29:13.589Z,25.50
2022-07-28T19:31:43.170Z,25.40
2022-07-28T19:34:12.067Z,25.40
2022-07-28T19:36:41.629Z,25.40
2022-07-28T19:39:12.159Z,25.40
2022-07-28T19:41:40.546Z,25.40
2022-07-28T19:44:09.455Z,25.30
2022-07-28T19:46:39.368Z,25.30
2022-07-28T19:49:11.747Z,25.30
2022-07-28T19:51:40.168Z,25.20
2022-07-28T19:54:08.642Z,25.20
2022-07-28T19:56:39.419Z,25.20
2022-07-28T19:59:08.290Z,25.10
2022-07-28T20:01:36.752Z,25.10
2022-07-28T20:04:17.367Z,25.10
2022-07-28T20:06:46.147Z,25.00
2022-07-28T20:09:16.584Z,25.00
2022-07-28T20:11:45.429Z,25.00
2022-07-28T20:14:13.994Z,25.00
2022-07-28T20:16:42.911Z,25.00
2022-07-28T20:19:17.489Z,25.00
2022-07-28T20:21:47.672Z,25.00
2022-07-28T20:24:19.411Z,25.00
2022-07-28T20:26:48.128Z,24.90
2022-07-28T20:29:16.973Z,24.90
2022-07-28T20:31:45.438Z,25.00
2022-07-28T20:34:15.893Z,25.00
2022-07-28T20:36:44.461Z,24.90
2022-07-28T20:39:42.145Z,24.80
2022-07-28T20:42:01.111Z,24.80
2022-07-28T20:44:30.200Z,24.80
2022-07-28T20:47:00.380Z,24.60
2022-07-28T20:49:30.410Z,24.40
2022-07-28T20:51:59.570Z,24.10
2022-07-28T20:54:28.563Z,23.90
2022-07-28T20:56:56.878Z,23.50
2022-07-28T20:59:27.940Z,23.20
2022-07-28T21:01:57.147Z,23.00
2022-07-28T21:04:26.314Z,22.80
2022-07-28T21:07:01.132Z,22.70
2022-07-28T21:09:30.950Z,22.60
2022-07-28T21:11:59.295Z,22.50
2022-07-28T21:14:27.663Z,22.50
2022-07-28T21:16:56.251Z,22.30
2022-07-28T21:19:24.609Z,22.30
2022-07-28T21:21:54.170Z,22.20
2022-07-28T21:24:23.743Z,22.10
2022-07-28T21:26:53.430Z,22.00
2022-07-28T21:32:04.190Z,21.80
2022-07-28T21:34:34.908Z,21.80
2022-07-28T21:37:03.617Z,21.60
2022-07-28T21:39:33.766Z,21.50
2022-07-28T21:42:05.711Z,21.40
2022-07-28T21:44:35.874Z,21.30
2022-07-28T21:47:04.288Z,21.20
2022-07-28T21:49:32.716Z,21.10
2022-07-28T21:52:01.239Z,21.00
2022-07-28T21:54:29.619Z,21.00
2022-07-28T21:56:59.408Z,21.00
2022-07-28T21:59:27.639Z,20.90
2022-07-28T22:01:56.108Z,20.90
2022-07-28T22:04:25.750Z,20.90
2022-07-28T22:06:54.189Z,20.80
2022-07-28T22:09:22.875Z,20.70
2022-07-28T22:11:51.048Z,20.60
2022-07-28T22:14:20.626Z,20.60
2022-07-28T22:16:48.909Z,20.60
2022-07-28T22:19:17.251Z,20.60
2022-07-28T22:21:45.504Z,20.70
2022-07-28T22:24:16.723Z,20.60
2022-07-28T22:26:45.352Z,20.60
2022-07-28T22:29:13.613Z,20.60
2022-07-28T22:31:43.246Z,20.70
2022-07-28T22:34:12.000Z,20.60
2022-07-28T22:36:40.378Z,20.60
2022-07-28T22:39:08.672Z,20.60
2022-07-28T22:41:36.931Z,20.60
2022-07-28T22:44:05.837Z,20.50
2022-07-28T22:46:35.250Z,20.40
2022-07-28T22:49:05.406Z,20.30
2022-07-28T22:51:33.721Z,20.30
2022-07-28T22:54:02.361Z,20.20
2022-07-28T22:56:34.776Z,20.20
2022-07-28T22:59:06.431Z,20.10
2022-07-28T23:01:34.893Z,20.10
2022-07-28T23:04:05.651Z,20.00
2022-07-28T23:06:36.182Z,20.00
2022-07-28T23:09:04.701Z,20.00
2022-07-28T23:11:32.953Z,19.90
2022-07-28T23:14:01.173Z,19.90
2022-07-28T23:16:29.529Z,19.90
2022-07-28T23:18:58.712Z,19.80
2022-07-28T23:21:29.440Z,19.80
2022-07-28T23:23:57.672Z,19.80
2022-07-28T23:26:25.855Z,19.90
2022-07-28T23:28:54.055Z,19.90
2022-07-28T23:31:22.342Z,19.90
2022-07-28T23:33:56.600Z,19.90
2022-07-28T23:36:26.663Z,19.80
2022-07-28T23:39:01.499Z,19.70
2022-07-28T23:41:29.784Z,19.70
2022-07-28T23:43:57.912Z,19.70
2022-07-28T23:46:26.192Z,19.70
2022-07-28T23:48:54.526Z,19.70
2022-07-28T23:51:32.054Z,19.70
2022-07-28T23:54:14.596Z,19.70
2022-07-28T23:56:43.422Z,19.70
2022-07-28T23:59:14.086Z,19.70
